createdAt,value
2023-04-29T00:00:04.638Z,13.3464
2023-04-29T00:01:07.834Z,13.3312
2023-04-29T00:02:10.948Z,13.3169
2023-04-29T00:03:14.349Z,13.3414
2023-04-29T00:04:14.563Z,13.3568
2023-04-29T00:05:14.926Z,13.2579
2023-04-29T00:06:15.460Z,13.2061
2023-04-29T00:07:16.517Z,13.2500
2023-04-29T00:08:19.635Z,13.2769
2023-04-29T00:09:22.761Z,13.3152
2023-04-29T00:10:25.857Z,13.2748
2023-04-29T00:11:29.048Z,13.2426
2023-04-29T00:12:32.198Z,13.2072
2023-04-29T00:13:35.257Z,13.2336
2023-04-29T00:14:38.366Z,13.3352
2023-04-29T00:15:41.501Z,13.3488
2023-04-29T00:16:44.647Z,13.2596
2023-04-29T00:17:47.729Z,13.2003
2023-04-29T00:18:50.824Z,13.1723
2023-04-29T00:19:54.286Z,13.2386
2023-04-29T00:20:54.419Z,13.3110
2023-04-29T00:21:56.333Z,13.3522
2023-04-29T00:22:56.249Z,13.2592
2023-04-29T00:23:59.340Z,13.2419
2023-04-29T00:25:02.451Z,13.2595
2023-04-29T00:26:05.584Z,13.3036
2023-04-29T00:27:08.756Z,13.3260
2023-04-29T00:28:11.873Z,13.3861
2023-04-29T00:29:14.973Z,13.4123
2023-04-29T00:30:18.059Z,13.4153
2023-04-29T00:31:21.218Z,13.3179
2023-04-29T00:32:24.299Z,13.2953
2023-04-29T00:33:27.461Z,13.2536
2023-04-29T00:34:27.363Z,13.1777
2023-04-29T00:35:30.473Z,13.1544
2023-04-29T00:36:33.594Z,13.0662
2023-04-29T00:37:36.686Z,13.0420
2023-04-29T00:38:39.943Z,13.0515
2023-04-29T00:39:39.832Z,13.0774
2023-04-29T00:40:42.954Z,13.0765
2023-04-29T00:41:46.223Z,13.1082
2023-04-29T00:42:49.293Z,13.1836
2023-04-29T00:43:52.427Z,13.1449
2023-04-29T00:44:55.539Z,13.2111
2023-04-29T00:45:58.659Z,13.1939
2023-04-29T00:47:01.762Z,13.2426
2023-04-29T00:48:05.265Z,13.2419
2023-04-29T00:49:05.743Z,13.2388
2023-04-29T00:50:05.628Z,13.2693
2023-04-29T00:51:08.719Z,13.2537
2023-04-29T00:52:11.809Z,13.2680
2023-04-29T00:53:14.995Z,13.2489
2023-04-29T00:54:18.119Z,13.2717
2023-04-29T00:55:21.217Z,13.3133
2023-04-29T00:56:24.382Z,13.3395
2023-04-29T00:57:27.441Z,13.4007
2023-04-29T00:58:30.692Z,13.4180
2023-04-29T00:59:30.580Z,13.4698
2023-04-29T01:00:33.705Z,13.4469
2023-04-29T01:01:37.171Z,13.4225
2023-04-29T01:02:37.210Z,13.3983
2023-04-29T01:03:37.335Z,13.3313
2023-04-29T01:04:37.374Z,13.2920
2023-04-29T01:05:40.526Z,13.2663
2023-04-29T01:06:43.626Z,13.2960
2023-04-29T01:07:46.749Z,13.2742
2023-04-29T01:08:49.853Z,13.2217
2023-04-29T01:09:53.263Z,13.1598
2023-04-29T01:10:53.317Z,13.1575
2023-04-29T01:11:56.392Z,13.2401
2023-04-29T01:12:59.518Z,13.2038
2023-04-29T01:14:02.619Z,13.1881
2023-04-29T01:15:05.725Z,13.1824
2023-04-29T01:16:09.081Z,13.1043
2023-04-29T01:17:08.988Z,13.0914
2023-04-29T01:18:12.104Z,13.1469
2023-04-29T01:19:15.183Z,13.1732
2023-04-29T01:20:18.264Z,13.1500
2023-04-29T01:21:21.382Z,13.1582
2023-04-29T01:22:24.525Z,13.1739
2023-04-29T01:23:27.634Z,13.2061
2023-04-29T01:24:30.772Z,13.1800
2023-04-29T01:25:33.897Z,13.1089
2023-04-29T01:26:37.010Z,13.0935
2023-04-29T01:27:40.168Z,13.1053
2023-04-29T01:28:43.378Z,13.1211
2023-04-29T01:29:46.455Z,13.1506
2023-04-29T01:30:49.557Z,13.1590
2023-04-29T01:31:52.794Z,13.0909
2023-04-29T01:32:52.783Z,13.0817
2023-04-29T01:33:55.976Z,13.1240
2023-04-29T01:34:59.150Z,13.1323
2023-04-29T01:35:59.086Z,13.2024
2023-04-29T01:37:02.183Z,13.1887
2023-04-29T01:38:05.349Z,13.1956
2023-04-29T01:39:08.590Z,13.1293
2023-04-29T01:40:08.508Z,13.1120
2023-04-29T01:41:11.623Z,13.0822
2023-04-29T01:42:14.735Z,13.1101
2023-04-29T01:43:17.874Z,13.1779
2023-04-29T01:44:17.881Z,13.1304
2023-04-29T01:45:20.997Z,13.0832
2023-04-29T01:46:24.155Z,13.0341
2023-04-29T01:47:27.331Z,12.9487
2023-04-29T01:48:30.467Z,12.9742
2023-04-29T01:50:48.303Z,13.0279
2023-04-29T01:50:48.303Z,13.0902
2023-04-29T01:51:48.214Z,13.0725
2023-04-29T01:52:51.379Z,12.9723
2023-04-29T01:53:51.407Z,12.9290
2023-04-29T01:54:51.337Z,12.9496
2023-04-29T01:55:54.576Z,12.9849
2023-04-29T01:56:54.477Z,12.9999
2023-04-29T01:57:57.625Z,13.0256
2023-04-29T01:59:00.807Z,13.1560
2023-04-29T02:00:00.743Z,13.1192
2023-04-29T02:01:03.976Z,13.1471
2023-04-29T02:02:03.955Z,13.2483
2023-04-29T02:03:03.993Z,13.3006
2023-04-29T02:04:04.098Z,13.1877
2023-04-29T02:05:07.200Z,13.0805
2023-04-29T02:06:10.337Z,13.1157
2023-04-29T02:07:13.508Z,13.1879
2023-04-29T02:08:16.654Z,13.1765
2023-04-29T02:09:19.904Z,13.1983
2023-04-29T02:10:19.829Z,13.1467
2023-04-29T02:11:23.162Z,13.1005
2023-04-29T02:12:23.079Z,13.0038
2023-04-29T02:13:23.469Z,12.9200
2023-04-29T02:14:23.473Z,12.9196
2023-04-29T02:15:23.509Z,12.8810
2023-04-29T02:16:26.682Z,12.9151
2023-04-29T02:17:29.771Z,12.9352
2023-04-29T02:18:33.013Z,12.9330
2023-04-29T02:19:33.074Z,12.9206
2023-04-29T02:20:33.076Z,12.9584
2023-04-29T02:21:33.060Z,12.9627
2023-04-29T02:22:36.278Z,12.9656
2023-04-29T02:23:36.245Z,12.9779
2023-04-29T02:24:39.470Z,12.9705
2023-04-29T02:25:39.505Z,12.9709
2023-04-29T02:26:39.445Z,12.9616
2023-04-29T02:27:42.687Z,12.9535
2023-04-29T02:28:45.803Z,12.9757
2023-04-29T02:29:49.014Z,12.9511
2023-04-29T02:30:48.972Z,12.9352
2023-04-29T02:31:52.143Z,12.9245
2023-04-29T02:32:55.352Z,12.9481
2023-04-29T02:33:55.277Z,13.0167
2023-04-29T02:34:58.423Z,13.0342
2023-04-29T02:36:01.613Z,13.0406
2023-04-29T02:37:01.559Z,13.0574
2023-04-29T02:38:04.756Z,13.0685
2023-04-29T02:39:04.688Z,13.0661
2023-04-29T02:40:07.838Z,13.1491
2023-04-29T02:41:11.021Z,13.1373
2023-04-29T02:42:10.976Z,13.0653
2023-04-29T02:43:14.178Z,13.0367
2023-04-29T02:44:14.117Z,13.1621
2023-04-29T02:45:17.267Z,13.2561
2023-04-29T02:46:20.449Z,13.2659
2023-04-29T02:47:23.582Z,13.1865
2023-04-29T02:48:26.782Z,13.2340
2023-04-29T02:49:26.809Z,13.2779
2023-04-29T02:50:26.768Z,13.2681
2023-04-29T02:51:29.918Z,13.2226
2023-04-29T02:52:33.034Z,13.2927
2023-04-29T02:53:36.252Z,13.2447
2023-04-29T02:54:36.217Z,13.1923
2023-04-29T02:55:39.396Z,13.1884
2023-04-29T02:56:42.557Z,13.1803
2023-04-29T02:57:45.778Z,13.1739
2023-04-29T02:58:45.747Z,13.2020
2023-04-29T02:59:48.928Z,13.1901
2023-04-29T03:00:52.131Z,13.2690
2023-04-29T03:01:53.329Z,13.2659
2023-04-29T03:02:53.388Z,13.2927
2023-04-29T03:03:53.633Z,13.3116
2023-04-29T03:04:54.566Z,13.2944
2023-04-29T03:05:57.811Z,13.2040
2023-04-29T03:06:57.723Z,13.1180
2023-04-29T03:08:00.895Z,13.1068
2023-04-29T03:09:04.040Z,13.1101
2023-04-29T03:10:07.232Z,13.0478
2023-04-29T03:11:07.197Z,13.0131
2023-04-29T03:12:10.415Z,12.9517
2023-04-29T03:13:10.424Z,12.9505
2023-04-29T03:14:10.365Z,13.0688
2023-04-29T03:15:11.332Z,13.0535
2023-04-29T03:16:14.513Z,12.9848
2023-04-29T03:17:17.697Z,12.9674
2023-04-29T03:18:17.734Z,13.0355
2023-04-29T03:19:17.705Z,13.1646
2023-04-29T03:20:20.881Z,13.1874
2023-04-29T03:21:20.893Z,13.0876
2023-04-29T03:22:24.073Z,13.1256
2023-04-29T03:23:27.235Z,13.0839
2023-04-29T03:24:27.285Z,13.1392
2023-04-29T03:25:30.481Z,13.1563
2023-04-29T03:26:30.559Z,13.0969
2023-04-29T03:27:30.465Z,13.1153
2023-04-29T03:28:34.428Z,13.1599
2023-04-29T03:29:34.335Z,13.2384
2023-04-29T03:30:37.477Z,13.2019
2023-04-29T03:31:40.694Z,13.2137
2023-04-29T03:32:40.716Z,13.2461
2023-04-29T03:33:40.675Z,13.2469
2023-04-29T03:34:44.011Z,13.2584
2023-04-29T03:35:44.019Z,13.2664
2023-04-29T03:36:43.997Z,13.2425
2023-04-29T03:37:43.966Z,13.2317
2023-04-29T03:38:47.162Z,13.1874
2023-04-29T03:39:47.204Z,13.1988
2023-04-29T03:40:47.107Z,13.1973
2023-04-29T03:42:11.357Z,13.1517
2023-04-29T03:42:52.119Z,13.1990
2023-04-29T03:43:52.133Z,13.3248
2023-04-29T03:44:52.091Z,13.3857
2023-04-29T03:45:55.311Z,13.3079
2023-04-29T03:46:55.343Z,13.3417
2023-04-29T03:47:55.365Z,13.3161
2023-04-29T03:48:58.513Z,13.2659
2023-04-29T03:50:01.737Z,13.1797
2023-04-29T03:51:02.687Z,13.1601
2023-04-29T03:52:05.846Z,13.1565
2023-04-29T03:53:05.788Z,13.1583
2023-04-29T03:54:08.952Z,13.1532
2023-04-29T03:55:12.124Z,13.0933
2023-04-29T03:56:16.944Z,13.1536
2023-04-29T03:57:17.372Z,13.1245
2023-04-29T03:58:17.443Z,13.1012
2023-04-29T03:59:17.734Z,13.1472
2023-04-29T04:00:17.674Z,13.1735
2023-04-29T04:01:17.668Z,13.0835
2023-04-29T04:02:20.935Z,13.0516
2023-04-29T04:03:21.200Z,13.0615
2023-04-29T04:04:21.382Z,13.0695
2023-04-29T04:05:21.416Z,13.1072
2023-04-29T04:06:24.562Z,13.1341
2023-04-29T04:07:24.597Z,13.2182
2023-04-29T04:08:27.829Z,13.2573
2023-04-29T04:09:27.766Z,13.2176
2023-04-29T04:10:30.931Z,13.1720
2023-04-29T04:11:34.063Z,13.0925
2023-04-29T04:12:37.269Z,13.0238
2023-04-29T04:13:37.309Z,13.0237
2023-04-29T04:14:37.202Z,13.0057
2023-04-29T04:15:40.339Z,12.9484
2023-04-29T04:16:43.582Z,12.8439
2023-04-29T04:17:44.561Z,12.8762
2023-04-29T04:18:47.723Z,12.8874
2023-04-29T04:19:51.046Z,12.8985
2023-04-29T04:20:52.161Z,12.9275
2023-04-29T04:21:55.282Z,12.9233
2023-04-29T04:22:58.379Z,12.9308
2023-04-29T04:24:01.631Z,12.8602
2023-04-29T04:25:01.862Z,12.9097
2023-04-29T04:26:01.870Z,12.8947
2023-04-29T04:27:01.995Z,12.9212
2023-04-29T04:28:01.899Z,12.9404
2023-04-29T04:29:05.024Z,12.8740
2023-04-29T04:30:08.325Z,12.8058
2023-04-29T04:31:08.367Z,12.8576
2023-04-29T04:32:08.303Z,12.9081
2023-04-29T04:33:08.289Z,12.8257
2023-04-29T04:34:12.137Z,12.7747
2023-04-29T04:35:12.126Z,12.7715
2023-04-29T04:36:15.300Z,12.8236
2023-04-29T04:37:15.361Z,12.9267
2023-04-29T04:38:15.298Z,12.9758
2023-04-29T04:39:18.449Z,12.9602
2023-04-29T04:40:21.595Z,12.9460
2023-04-29T04:41:25.077Z,12.8644
2023-04-29T04:42:25.077Z,12.8034
2023-04-29T04:43:28.236Z,12.7590
2023-04-29T04:44:31.462Z,12.7646
2023-04-29T04:45:31.366Z,12.6942
2023-04-29T04:46:34.554Z,12.6800
2023-04-29T04:47:37.744Z,12.7411
2023-04-29T04:48:40.854Z,12.8003
2023-04-29T04:49:44.029Z,12.7288
2023-04-29T04:50:47.184Z,12.7110
2023-04-29T04:51:50.328Z,12.8064
2023-04-29T04:52:53.521Z,12.8024
2023-04-29T04:53:56.616Z,12.6697
2023-04-29T04:54:59.757Z,12.5871
2023-04-29T04:56:02.897Z,12.6311
2023-04-29T04:57:06.077Z,12.6655
2023-04-29T04:58:06.039Z,12.6305
2023-04-29T04:59:09.454Z,12.5663
2023-04-29T05:00:09.358Z,12.5114
2023-04-29T05:01:12.550Z,12.5335
2023-04-29T05:02:15.746Z,12.5424
2023-04-29T05:03:19.028Z,12.5273
2023-04-29T05:04:19.956Z,12.5558
2023-04-29T05:05:20.042Z,12.6256
2023-04-29T05:06:19.961Z,12.6045
2023-04-29T05:07:23.727Z,12.6229
2023-04-29T05:08:23.668Z,12.6212
2023-04-29T05:09:26.772Z,12.6356
2023-04-29T05:10:29.923Z,12.7112
2023-04-29T05:11:33.104Z,12.7480
2023-04-29T05:12:33.065Z,12.7288
2023-04-29T05:13:36.233Z,12.7906
2023-04-29T05:14:36.196Z,12.7918
2023-04-29T05:15:39.336Z,12.8343
2023-04-29T05:16:42.834Z,12.9161
2023-04-29T05:17:42.861Z,12.9752
2023-04-29T05:18:45.979Z,13.0805
2023-04-29T05:19:49.305Z,13.1612
2023-04-29T05:20:49.240Z,13.0769
2023-04-29T05:21:52.433Z,12.9602
2023-04-29T05:22:52.379Z,12.9559
2023-04-29T05:23:55.502Z,13.0325
2023-04-29T05:24:58.651Z,13.1549
2023-04-29T05:26:01.861Z,13.2628
2023-04-29T05:27:01.805Z,13.2100
2023-04-29T05:28:05.020Z,13.2945
2023-04-29T05:29:08.257Z,13.2788
2023-04-29T05:30:08.230Z,13.2821
2023-04-29T05:31:11.569Z,13.3629
2023-04-29T05:32:11.544Z,13.4040
2023-04-29T05:33:16.053Z,13.3602
2023-04-29T05:34:15.999Z,13.4114
2023-04-29T05:35:16.388Z,13.4033
2023-04-29T05:36:16.289Z,13.4699
2023-04-29T05:37:19.482Z,13.5662
2023-04-29T05:38:19.483Z,13.5077
2023-04-29T05:39:22.699Z,13.3602
2023-04-29T05:40:22.678Z,13.2447
2023-04-29T05:41:25.832Z,13.2396
2023-04-29T05:42:25.839Z,13.3469
2023-04-29T05:43:29.058Z,13.4729
2023-04-29T05:44:29.003Z,13.5714
2023-04-29T05:45:29.815Z,13.6205
2023-04-29T05:46:30.287Z,13.7381
2023-04-29T05:47:30.528Z,13.7598
2023-04-29T05:48:30.576Z,13.7706
2023-04-29T05:49:33.755Z,13.7081
2023-04-29T05:50:36.946Z,13.6490
2023-04-29T05:51:37.429Z,13.7214
2023-04-29T05:52:37.360Z,13.7193
2023-04-29T05:53:40.570Z,13.6080
2023-04-29T05:54:40.570Z,13.4605
2023-04-29T05:55:40.557Z,13.4646
2023-04-29T05:56:43.739Z,13.6435
2023-04-29T05:57:43.869Z,13.7381
2023-04-29T05:58:44.264Z,13.8108
2023-04-29T05:59:44.189Z,13.7932
2023-04-29T06:00:44.162Z,13.7531
2023-04-29T06:01:47.596Z,13.6788
2023-04-29T06:02:58.280Z,13.6133
2023-04-29T06:03:50.639Z,13.6596
2023-04-29T06:04:51.081Z,13.6217
2023-04-29T06:05:51.226Z,13.5217
2023-04-29T06:06:53.473Z,13.5006
2023-04-29T06:07:53.370Z,13.6070
2023-04-29T06:08:56.527Z,13.5805
2023-04-29T06:09:59.710Z,13.6469
2023-04-29T06:11:02.898Z,13.6936
2023-04-29T06:12:06.052Z,13.7303
2023-04-29T06:13:09.266Z,13.7040
2023-04-29T06:14:12.410Z,13.7200
2023-04-29T06:15:15.550Z,13.7772
2023-04-29T06:16:18.838Z,13.8302
2023-04-29T06:17:18.775Z,13.8127
2023-04-29T06:18:21.907Z,13.6237
2023-04-29T06:19:25.188Z,13.7014
2023-04-29T06:20:25.086Z,13.6622
2023-04-29T06:21:28.330Z,13.6468
2023-04-29T06:22:28.285Z,13.6048
2023-04-29T06:23:31.443Z,13.5674
2023-04-29T06:24:34.652Z,13.5402
2023-04-29T06:25:37.741Z,13.5303
2023-04-29T06:26:40.944Z,13.5182
2023-04-29T06:27:44.061Z,13.4083
2023-04-29T06:28:47.226Z,13.4190
2023-04-29T06:29:50.381Z,13.3908
2023-04-29T06:30:53.498Z,13.3798
2023-04-29T06:31:56.665Z,13.3594
2023-04-29T06:32:59.825Z,13.4153
2023-04-29T06:34:02.979Z,13.4662
2023-04-29T06:35:06.116Z,13.4853
2023-04-29T06:36:09.240Z,13.4206
2023-04-29T06:37:12.382Z,13.4045
2023-04-29T06:38:15.592Z,13.4382
2023-04-29T06:39:15.634Z,13.5013
2023-04-29T06:40:15.622Z,13.5063
2023-04-29T06:41:18.748Z,13.4895
2023-04-29T06:42:18.738Z,13.6176
2023-04-29T06:43:21.874Z,13.6376
2023-04-29T06:44:25.230Z,13.6751
2023-04-29T06:45:25.368Z,13.6603
2023-04-29T06:46:25.345Z,13.7071
2023-04-29T06:47:28.583Z,13.7286
2023-04-29T06:48:28.494Z,13.6955
2023-04-29T06:49:31.683Z,13.6522
2023-04-29T06:50:31.711Z,13.6448
2023-04-29T06:51:34.985Z,13.6783
2023-04-29T06:52:34.996Z,13.7538
2023-04-29T06:53:38.141Z,13.7845
2023-04-29T06:54:38.099Z,13.9006
2023-04-29T06:55:41.252Z,13.9262
2023-04-29T06:56:44.402Z,13.9740
2023-04-29T06:57:47.553Z,14.0877
2023-04-29T06:58:50.701Z,14.1137
2023-04-29T06:59:54.013Z,14.2077
2023-04-29T07:00:54.267Z,14.3021
2023-04-29T07:01:54.310Z,14.4406
2023-04-29T07:02:54.362Z,14.3486
2023-04-29T07:03:54.408Z,14.2735
2023-04-29T07:04:54.525Z,14.3084
2023-04-29T07:05:54.665Z,14.3024
2023-04-29T07:06:54.625Z,14.3546
2023-04-29T07:07:57.794Z,14.5264
2023-04-29T07:09:00.974Z,14.6296
2023-04-29T07:10:04.154Z,14.6425
2023-04-29T07:11:07.307Z,14.5692
2023-04-29T07:12:10.541Z,14.5793
2023-04-29T07:13:13.663Z,14.6799
2023-04-29T07:14:16.844Z,14.7249
2023-04-29T07:15:20.002Z,14.7621
2023-04-29T07:16:23.176Z,14.8764
2023-04-29T07:17:26.414Z,14.9258
2023-04-29T07:18:26.324Z,14.8880
2023-04-29T07:19:29.500Z,14.8995
2023-04-29T07:20:29.442Z,14.9276
2023-04-29T07:21:32.643Z,14.9611
2023-04-29T07:22:32.589Z,14.7854
2023-04-29T07:23:35.769Z,14.7627
2023-04-29T07:24:39.236Z,14.9346
2023-04-29T07:25:39.172Z,14.7975
2023-04-29T07:26:42.368Z,14.6013
2023-04-29T07:27:42.356Z,14.6107
2023-04-29T07:28:45.553Z,14.7115
2023-04-29T07:29:45.515Z,14.6865
2023-04-29T07:30:48.741Z,14.5073
2023-04-29T07:31:48.719Z,14.4628
2023-04-29T07:32:48.706Z,14.4019
2023-04-29T07:33:51.856Z,14.3290
2023-04-29T07:34:55.328Z,14.2796
2023-04-29T07:35:55.393Z,14.2323
2023-04-29T07:36:58.592Z,14.2774
2023-04-29T07:38:01.735Z,14.4104
2023-04-29T07:39:04.972Z,14.5479
2023-04-29T07:40:04.911Z,14.5975
2023-04-29T07:41:08.081Z,14.6254
2023-04-29T07:42:08.094Z,14.7430
2023-04-29T07:43:09.437Z,14.7260
2023-04-29T07:44:10.462Z,14.6726
2023-04-29T07:45:10.431Z,14.7976
2023-04-29T07:46:13.632Z,14.9326
2023-04-29T07:47:16.805Z,15.0108
2023-04-29T07:48:16.808Z,15.1075
2023-04-29T07:49:19.999Z,15.1248
2023-04-29T07:50:19.975Z,15.0966
2023-04-29T07:51:23.181Z,15.0654
2023-04-29T07:52:26.313Z,15.0273
2023-04-29T07:53:29.593Z,15.0068
2023-04-29T07:54:29.464Z,15.0021
2023-04-29T07:55:32.688Z,15.0135
2023-04-29T07:56:35.845Z,15.1109
2023-04-29T07:57:38.972Z,15.0234
2023-04-29T07:58:42.140Z,15.0494
2023-04-29T07:59:45.360Z,15.1151
2023-04-29T08:00:48.515Z,15.1478
2023-04-29T08:01:51.718Z,15.2716
2023-04-29T08:02:51.794Z,15.3348
2023-04-29T08:03:51.921Z,15.4840
2023-04-29T08:04:52.481Z,15.4934
2023-04-29T08:05:52.663Z,15.3864
2023-04-29T08:06:55.768Z,15.4331
2023-04-29T08:07:58.940Z,15.5447
2023-04-29T08:09:03.230Z,15.5575
2023-04-29T08:10:03.313Z,15.5973
2023-04-29T08:11:06.756Z,15.4712
2023-04-29T08:12:07.616Z,15.3296
2023-04-29T08:13:08.630Z,15.2122
2023-04-29T08:14:11.817Z,15.2460
2023-04-29T08:15:14.971Z,15.2643
2023-04-29T08:16:18.233Z,15.3186
2023-04-29T08:17:18.219Z,15.2111
2023-04-29T08:18:18.196Z,15.1176
2023-04-29T08:19:21.415Z,15.2120
2023-04-29T08:20:21.458Z,15.3077
2023-04-29T08:21:21.395Z,15.4033
2023-04-29T08:22:24.561Z,15.4590
2023-04-29T08:23:24.571Z,15.5446
2023-04-29T08:24:27.825Z,15.6106
2023-04-29T08:25:27.787Z,15.7151
2023-04-29T08:26:30.959Z,15.8165
2023-04-29T08:27:34.141Z,15.8170
2023-04-29T08:28:37.296Z,15.7713
2023-04-29T08:29:37.330Z,15.8919
2023-04-29T08:30:40.458Z,16.0332
2023-04-29T08:31:43.624Z,15.9087
2023-04-29T08:32:46.816Z,15.9440
2023-04-29T08:33:49.925Z,15.9717
2023-04-29T08:34:53.372Z,15.9486
2023-04-29T08:35:53.374Z,15.8544
2023-04-29T08:36:56.536Z,15.7827
2023-04-29T08:37:59.664Z,15.7355
2023-04-29T08:39:02.817Z,15.7212
2023-04-29T08:40:05.997Z,15.8038
2023-04-29T08:41:09.094Z,15.8129
2023-04-29T08:42:12.243Z,15.7624
2023-04-29T08:43:15.357Z,15.6890
2023-04-29T08:44:18.487Z,15.6762
2023-04-29T08:45:21.728Z,15.7500
2023-04-29T08:46:24.802Z,15.7525
2023-04-29T08:47:28.003Z,15.8043
2023-04-29T08:48:31.183Z,15.8106
2023-04-29T08:49:31.138Z,15.7815
2023-04-29T08:50:34.272Z,15.7755
2023-04-29T08:51:37.445Z,15.9275
2023-04-29T08:52:40.557Z,15.9214
2023-04-29T08:53:43.686Z,15.9224
2023-04-29T08:54:46.837Z,15.9661
2023-04-29T08:55:49.964Z,15.9733
2023-04-29T08:56:53.108Z,15.9185
2023-04-29T08:57:56.244Z,16.0373
2023-04-29T08:58:59.345Z,16.1331
2023-04-29T09:00:02.595Z,16.1810
2023-04-29T09:01:05.717Z,16.1028
2023-04-29T09:02:08.834Z,16.0738
2023-04-29T09:03:12.039Z,16.1177
2023-04-29T09:04:12.064Z,16.1311
2023-04-29T09:05:12.979Z,16.2093
2023-04-29T09:06:16.100Z,16.2277
2023-04-29T09:07:19.244Z,16.2293
2023-04-29T09:08:22.350Z,16.2388
2023-04-29T09:09:25.474Z,16.2513
2023-04-29T09:10:28.602Z,16.2891
2023-04-29T09:11:31.813Z,16.1720
2023-04-29T09:12:34.910Z,16.1687
2023-04-29T09:13:38.036Z,16.2148
2023-04-29T09:14:41.155Z,16.2859
2023-04-29T09:15:44.273Z,16.3639
2023-04-29T09:16:47.625Z,16.4650
2023-04-29T09:17:47.724Z,16.5958
2023-04-29T09:18:47.634Z,16.6857
2023-04-29T09:19:50.745Z,16.7658
2023-04-29T09:20:53.853Z,16.6914
2023-04-29T09:21:57.022Z,16.5902
2023-04-29T09:23:00.202Z,16.5742
2023-04-29T09:24:03.329Z,16.4124
2023-04-29T09:25:06.461Z,16.4470
2023-04-29T09:26:09.621Z,16.5588
2023-04-29T09:27:09.586Z,16.6146
2023-04-29T09:28:12.745Z,16.6168
2023-04-29T09:29:15.887Z,16.5525
2023-04-29T09:30:19.013Z,16.6061
2023-04-29T09:31:22.161Z,16.6810
2023-04-29T09:32:25.319Z,16.7523
2023-04-29T09:33:28.421Z,16.6572
2023-04-29T09:34:31.521Z,16.6610
2023-04-29T09:35:34.776Z,16.6221
2023-04-29T09:36:37.869Z,16.6908
2023-04-29T09:37:41.035Z,16.7541
2023-04-29T09:38:44.736Z,16.9226
2023-04-29T09:39:44.629Z,17.0453
2023-04-29T09:40:59.029Z,17.1948
2023-04-29T09:41:50.362Z,17.2623
2023-04-29T09:42:53.495Z,17.3284
2023-04-29T09:43:56.668Z,17.3986
2023-04-29T09:44:59.805Z,17.2329
2023-04-29T09:46:02.962Z,17.3040
2023-04-29T09:47:06.101Z,17.3904
2023-04-29T09:48:09.219Z,17.4366
2023-04-29T09:49:12.349Z,17.5648
2023-04-29T09:50:15.490Z,17.8845
2023-04-29T09:51:18.616Z,18.0043
2023-04-29T09:52:21.786Z,17.9980
2023-04-29T09:53:24.957Z,17.9970
2023-04-29T09:54:28.087Z,18.0707
2023-04-29T09:55:31.211Z,18.1281
2023-04-29T09:56:34.332Z,18.2069
2023-04-29T09:57:37.492Z,18.1471
2023-04-29T09:58:40.638Z,17.9340
2023-04-29T09:59:43.966Z,17.9773
2023-04-29T10:00:43.863Z,17.8866
2023-04-29T10:01:47.071Z,17.9321
2023-04-29T10:02:50.302Z,17.8831
2023-04-29T10:03:50.375Z,17.7677
2023-04-29T10:04:50.491Z,17.7764
2023-04-29T10:05:50.404Z,18.0730
2023-04-29T10:06:53.533Z,18.2530
2023-04-29T10:07:56.695Z,18.2675
2023-04-29T10:08:59.828Z,18.0776
2023-04-29T10:10:02.977Z,18.1284
2023-04-29T10:11:06.327Z,18.0470
2023-04-29T10:12:06.218Z,18.1634
2023-04-29T10:13:09.330Z,18.2609
2023-04-29T10:14:12.510Z,18.3187
2023-04-29T10:15:15.632Z,18.3985
2023-04-29T10:16:18.867Z,18.2440
2023-04-29T10:17:18.798Z,18.1832
2023-04-29T10:18:21.915Z,18.1833
2023-04-29T10:19:25.094Z,18.2043
2023-04-29T10:20:28.225Z,18.1851
2023-04-29T10:21:31.723Z,17.9937
2023-04-29T10:22:31.790Z,18.0198
2023-04-29T10:23:34.914Z,18.1479
2023-04-29T10:24:38.124Z,18.2750
2023-04-29T10:25:38.033Z,18.3797
2023-04-29T10:26:41.165Z,18.4601
2023-04-29T10:27:44.348Z,18.5577
2023-04-29T10:28:47.492Z,18.5697
2023-04-29T10:29:50.628Z,18.5556
2023-04-29T10:30:53.754Z,18.4437
2023-04-29T10:31:56.889Z,18.5787
2023-04-29T10:33:01.763Z,18.6692
2023-04-29T10:34:01.770Z,18.7121
2023-04-29T10:35:04.919Z,18.7472
2023-04-29T10:36:08.014Z,18.7524
2023-04-29T10:37:11.147Z,18.7918
2023-04-29T10:38:14.275Z,18.8970
2023-04-29T10:39:17.419Z,19.0037
2023-04-29T10:40:20.549Z,18.9537
2023-04-29T10:41:23.656Z,18.8721
2023-04-29T10:42:26.809Z,18.9908
2023-04-29T10:43:29.944Z,18.9897
2023-04-29T10:44:29.895Z,19.0055
2023-04-29T10:45:33.035Z,18.9815
2023-04-29T10:46:36.211Z,19.0113
2023-04-29T10:47:39.307Z,18.9290
2023-04-29T10:48:42.431Z,18.8114
2023-04-29T10:49:45.590Z,18.8402
2023-04-29T10:50:48.757Z,18.8021
2023-04-29T10:51:51.872Z,18.4126
2023-04-29T10:52:54.999Z,17.7605
2023-04-29T10:53:58.214Z,17.4902
2023-04-29T10:54:58.156Z,17.2555
2023-04-29T10:56:01.328Z,16.9886
2023-04-29T10:57:01.303Z,16.6893
2023-04-29T10:58:04.473Z,16.4328
2023-04-29T10:59:07.636Z,16.4296
2023-04-29T11:00:10.792Z,16.1309
2023-04-29T11:01:13.942Z,15.8950
2023-04-29T11:02:17.078Z,15.7917
2023-04-29T11:03:20.693Z,15.7101
2023-04-29T11:04:20.732Z,15.6943
2023-04-29T11:05:20.649Z,15.8561
2023-04-29T11:06:23.826Z,15.9091
2023-04-29T11:07:26.979Z,15.9264
2023-04-29T11:08:30.144Z,15.9987
2023-04-29T11:09:33.337Z,16.0693
2023-04-29T11:10:36.502Z,16.2182
2023-04-29T11:11:39.665Z,16.3687
2023-04-29T11:12:42.799Z,16.5289
2023-04-29T11:13:45.957Z,16.6936
2023-04-29T11:14:49.120Z,16.8229
2023-04-29T11:15:49.117Z,16.9983
2023-04-29T11:16:52.347Z,17.1019
2023-04-29T11:17:52.359Z,17.2066
2023-04-29T11:18:55.497Z,17.2708
2023-04-29T11:19:58.691Z,17.3422
2023-04-29T11:21:01.843Z,17.4572
2023-04-29T11:22:05.011Z,17.6172
2023-04-29T11:23:08.172Z,17.7438
2023-04-29T11:24:11.356Z,17.8562
2023-04-29T11:25:14.556Z,18.1617
2023-04-29T11:26:14.516Z,18.3057
2023-04-29T11:27:14.550Z,18.0713
2023-04-29T11:28:17.686Z,18.1894
2023-04-29T11:29:20.890Z,18.4043
2023-04-29T11:30:20.869Z,18.5847
2023-04-29T11:31:24.782Z,18.5052
2023-04-29T11:32:25.771Z,18.5802
2023-04-29T11:33:25.800Z,18.5898
2023-04-29T11:34:28.954Z,18.8521
2023-04-29T11:35:32.143Z,18.9280
2023-04-29T11:36:32.101Z,19.1031
2023-04-29T11:37:35.240Z,19.1217
2023-04-29T11:38:38.400Z,19.3142
2023-04-29T11:39:41.619Z,19.2946
2023-04-29T11:40:44.751Z,19.3552
2023-04-29T11:41:47.936Z,19.4361
2023-04-29T11:42:51.090Z,19.4499
2023-04-29T11:43:54.234Z,19.5760
2023-04-29T11:44:57.408Z,19.6895
2023-04-29T11:46:00.629Z,19.7337
2023-04-29T11:47:03.762Z,19.6836
2023-04-29T11:48:06.949Z,19.7609
2023-04-29T11:49:10.048Z,19.8461
2023-04-29T11:50:13.223Z,19.7470
2023-04-29T11:51:16.354Z,19.8000
2023-04-29T11:52:19.526Z,19.7550
2023-04-29T11:53:22.682Z,19.6883
2023-04-29T11:54:25.944Z,19.6825
2023-04-29T11:55:25.904Z,19.5078
2023-04-29T11:56:29.060Z,19.4447
2023-04-29T11:57:32.244Z,19.6446
2023-04-29T11:58:35.404Z,19.8875
2023-04-29T11:59:38.545Z,20.0042
2023-04-29T12:00:41.830Z,19.9486
2023-04-29T12:01:41.787Z,19.8585
2023-04-29T12:02:45.043Z,19.7579
2023-04-29T12:03:45.399Z,19.7263
2023-04-29T12:04:45.614Z,19.6360
2023-04-29T12:05:45.743Z,19.5235
2023-04-29T12:06:45.669Z,19.5301
2023-04-29T12:07:48.808Z,19.4035
2023-04-29T12:08:51.954Z,19.1967
2023-04-29T12:09:55.114Z,19.1027
2023-04-29T12:10:55.188Z,19.1180
2023-04-29T12:11:55.094Z,19.1935
2023-04-29T12:12:58.279Z,19.3916
2023-04-29T12:14:01.453Z,19.6592
2023-04-29T12:15:04.644Z,19.8934
2023-04-29T12:16:07.778Z,19.7472
2023-04-29T12:17:10.902Z,19.7779
2023-04-29T12:18:14.107Z,19.8300
2023-04-29T12:19:17.285Z,19.7869
2023-04-29T12:20:20.461Z,19.6728
2023-04-29T12:21:23.663Z,19.6121
2023-04-29T12:22:23.622Z,19.7098
2023-04-29T12:23:26.796Z,19.6140
2023-04-29T12:24:29.984Z,19.2889
2023-04-29T12:25:33.159Z,19.0807
2023-04-29T12:26:36.321Z,18.9730
2023-04-29T12:27:39.463Z,18.9348
2023-04-29T12:28:42.590Z,18.6867
2023-04-29T12:29:45.715Z,18.1823
2023-04-29T12:30:48.993Z,17.8848
2023-04-29T12:31:48.994Z,17.6929